createdAt,value
2016-05-24T00:00:18.326Z,1008.69
2016-05-24T00:01:18.187Z,1008.67
2016-05-24T00:02:18.160Z,1008.69
2016-05-24T00:03:18.146Z,1008.72
2016-05-24T00:04:18.134Z,1008.67
2016-05-24T00:05:18.136Z,1008.72
2016-05-24T00:06:18.107Z,1008.69
2016-05-24T00:07:18.094Z,1008.75
2016-05-24T00:08:18.331Z,1008.72
2016-05-24T00:09:18.069Z,1008.73
2016-05-24T00:10:18.056Z,1008.75
2016-05-24T00:11:18.042Z,1008.75
2016-05-24T00:12:18.030Z,1008.78
2016-05-24T00:13:18.033Z,1008.77
2016-05-24T00:14:18.003Z,1008.83
2016-05-24T00:15:18.006Z,1008.84
2016-05-24T00:16:18.384Z,1008.84
2016-05-24T00:17:17.966Z,1008.83
2016-05-24T00:18:17.952Z,1008.81
2016-05-24T00:19:17.939Z,1008.81
2016-05-24T00:20:17.927Z,1008.83
2016-05-24T00:21:17.914Z,1008.87
2016-05-24T00:22:17.900Z,1008.83
2016-05-24T00:23:17.888Z,1008.8
2016-05-24T00:24:17.874Z,1008.82
2016-05-24T00:25:17.862Z,1008.81
2016-05-24T00:26:17.848Z,1008.79
2016-05-24T00:27:17.836Z,1008.79
2016-05-24T00:28:17.823Z,1008.75
2016-05-24T00:29:17.810Z,1008.75
2016-05-24T00:30:17.796Z,1008.71
2016-05-24T00:31:17.785Z,1008.69
2016-05-24T00:32:17.771Z,1008.75
2016-05-24T00:33:17.790Z,1008.74
2016-05-24T00:34:17.745Z,1008.71
2016-05-24T00:35:17.732Z,1008.7
2016-05-24T00:36:17.734Z,1008.71
2016-05-24T00:37:17.706Z,1008.67
2016-05-24T00:38:17.709Z,1008.67
2016-05-24T00:39:17.681Z,1008.71
2016-05-24T00:40:17.668Z,1008.65
2016-05-24T00:41:17.670Z,1008.68
2016-05-24T00:42:17.642Z,1008.64
2016-05-24T00:43:17.644Z,1008.65
2016-05-24T00:44:17.616Z,1008.7
2016-05-24T00:45:17.619Z,1008.62
2016-05-24T00:46:17.606Z,1008.66
2016-05-24T00:47:17.577Z,1008.62
2016-05-24T00:48:17.580Z,1008.66
2016-05-24T00:49:17.567Z,1008.59
2016-05-24T00:50:17.555Z,1008.62
2016-05-24T00:51:17.541Z,1008.66
2016-05-24T00:52:17.528Z,1008.65
2016-05-24T00:53:17.515Z,1008.66
2016-05-24T00:54:17.502Z,1008.65
2016-05-24T00:55:17.489Z,1008.63
2016-05-24T00:56:17.477Z,1008.64
2016-05-24T00:57:17.463Z,1008.69
2016-05-24T00:58:17.451Z,1008.67
2016-05-24T00:59:17.437Z,1008.65
2016-05-24T01:00:17.435Z,1008.69
2016-05-24T01:01:17.451Z,1008.76
2016-05-24T01:02:17.466Z,1008.72
2016-05-24T01:03:17.482Z,1008.72
2016-05-24T01:04:17.497Z,1008.73
2016-05-24T01:05:17.505Z,1008.74
2016-05-24T01:06:17.503Z,1008.76
2016-05-24T01:07:17.499Z,1008.75
2016-05-24T01:08:17.497Z,1008.73
2016-05-24T01:09:17.495Z,1008.75
2016-05-24T01:10:17.489Z,1008.76
2016-05-24T01:11:17.479Z,1008.76
2016-05-24T01:12:17.471Z,1008.78
2016-05-24T01:13:17.461Z,1008.79
2016-05-24T01:14:17.453Z,1008.73
2016-05-24T01:15:17.443Z,1008.7
2016-05-24T01:16:17.430Z,1008.72
2016-05-24T01:17:17.419Z,1008.68
2016-05-24T01:18:17.407Z,1008.75
2016-05-24T01:19:17.394Z,1008.7
2016-05-24T01:20:17.383Z,1008.77
2016-05-24T01:21:17.371Z,1008.74
2016-05-24T01:22:17.358Z,1008.73
2016-05-24T01:23:17.346Z,1008.76
2016-05-24T01:24:17.332Z,1008.73
2016-05-24T01:25:17.321Z,1008.72
2016-05-24T01:26:17.307Z,1008.72
2016-05-24T01:27:17.295Z,1008.73
2016-05-24T01:28:17.282Z,1008.72
2016-05-24T01:29:17.270Z,1008.71
2016-05-24T01:30:17.257Z,1008.69
2016-05-24T01:31:17.245Z,1008.71
2016-05-24T01:32:17.232Z,1008.7
2016-05-24T01:33:17.219Z,1008.67
2016-05-24T01:34:17.205Z,1008.64
2016-05-24T01:35:17.192Z,1008.7
2016-05-24T01:36:17.179Z,1008.67
2016-05-24T01:37:17.183Z,1008.68
2016-05-24T01:38:17.155Z,1008.71
2016-05-24T01:39:17.141Z,1008.66
2016-05-24T01:40:17.128Z,1008.7
2016-05-24T01:41:17.115Z,1008.73
2016-05-24T01:42:17.118Z,1008.68
2016-05-24T01:43:17.088Z,1008.67
2016-05-24T01:44:17.592Z,1008.59
2016-05-24T01:45:17.063Z,1008.67
2016-05-24T01:46:17.051Z,1008.67
2016-05-24T01:47:17.037Z,1008.72
2016-05-24T01:48:17.024Z,1008.62
2016-05-24T01:49:17.012Z,1008.65
2016-05-24T01:50:16.999Z,1008.65
2016-05-24T01:51:16.985Z,1008.66
2016-05-24T01:52:16.973Z,1008.61
2016-05-24T01:53:16.959Z,1008.65
2016-05-24T01:54:16.947Z,1008.67
2016-05-24T01:55:16.950Z,1008.62
2016-05-24T01:56:16.921Z,1008.64
2016-05-24T01:57:16.908Z,1008.63
2016-05-24T01:58:16.895Z,1008.55
2016-05-24T01:59:16.945Z,1008.59
2016-05-24T02:00:16.870Z,1008.66
2016-05-24T02:01:16.856Z,1008.59
2016-05-24T02:02:16.859Z,1008.66
2016-05-24T02:03:16.830Z,1008.65
2016-05-24T02:04:16.817Z,1008.58
2016-05-24T02:05:16.819Z,1008.61
2016-05-24T02:06:16.808Z,1008.58
2016-05-24T02:07:16.779Z,1008.61
2016-05-24T02:08:16.766Z,1008.55
2016-05-24T02:09:16.768Z,1008.6
2016-05-24T02:10:16.740Z,1008.54
2016-05-24T02:11:16.727Z,1008.53
2016-05-24T02:12:16.714Z,1008.57
2016-05-24T02:13:16.717Z,1008.57
2016-05-24T02:14:16.766Z,1008.57
2016-05-24T02:15:16.894Z,1008.6
2016-05-24T02:16:16.677Z,1008.59
2016-05-24T02:17:16.665Z,1008.63
2016-05-24T02:18:16.652Z,1008.57
2016-05-24T02:19:16.639Z,1008.55
2016-05-24T02:20:16.627Z,1008.61
2016-05-24T02:21:16.613Z,1008.59
2016-05-24T02:22:16.600Z,1008.58
2016-05-24T02:23:16.587Z,1008.6
2016-05-24T02:24:16.574Z,1008.56
2016-05-24T02:25:16.562Z,1008.51
2016-05-24T02:26:16.548Z,1008.56
2016-05-24T02:27:16.536Z,1008.57
2016-05-24T02:28:16.523Z,1008.57
2016-05-24T02:29:16.807Z,1008.59
2016-05-24T02:30:16.497Z,1008.55
2016-05-24T02:31:16.484Z,1008.6
2016-05-24T02:32:16.470Z,1008.62
2016-05-24T02:33:16.458Z,1008.63
2016-05-24T02:34:16.444Z,1008.56
2016-05-24T02:35:16.433Z,1008.62
2016-05-24T02:36:16.419Z,1008.57
2016-05-24T02:37:16.406Z,1008.57
2016-05-24T02:38:16.393Z,1008.5
2016-05-24T02:39:16.474Z,1008.49
2016-05-24T02:40:16.352Z,1008.53
2016-05-24T02:41:16.355Z,1008.47
2016-05-24T02:42:16.342Z,1008.51
2016-05-24T02:43:16.329Z,1008.51
2016-05-24T02:44:16.315Z,1008.52
2016-05-24T02:45:16.302Z,1008.5
2016-05-24T02:46:16.290Z,1008.51
2016-05-24T02:47:16.418Z,1008.55
2016-05-24T02:48:16.264Z,1008.5
2016-05-24T02:49:16.251Z,1008.51
2016-05-24T02:50:16.238Z,1008.49
2016-05-24T02:51:16.225Z,1008.53
2016-05-24T02:52:16.212Z,1008.53
2016-05-24T02:53:16.246Z,1008.47
2016-05-24T02:54:16.187Z,1008.55
2016-05-24T02:55:16.486Z,1008.57
2016-05-24T02:56:16.160Z,1008.54
2016-05-24T02:57:16.148Z,1008.54
2016-05-24T02:58:16.135Z,1008.5
2016-05-24T02:59:16.122Z,1008.52
2016-05-24T03:00:16.109Z,1008.49
2016-05-24T03:01:16.095Z,1008.5
2016-05-24T03:02:16.083Z,1008.52
2016-05-24T03:03:16.570Z,1008.49
2016-05-24T03:04:16.057Z,1008.5
2016-05-24T03:05:16.044Z,1008.53
2016-05-24T03:06:16.031Z,1008.5
2016-05-24T03:07:16.019Z,1008.56
2016-05-24T03:08:16.005Z,1008.52
2016-05-24T03:09:16.008Z,1008.55
2016-05-24T03:10:15.980Z,1008.57
2016-05-24T03:11:16.466Z,1008.56
2016-05-24T03:12:15.953Z,1008.61
2016-05-24T03:13:15.955Z,1008.52
2016-05-24T03:14:15.927Z,1008.54
2016-05-24T03:15:15.915Z,1008.59
2016-05-24T03:16:15.902Z,1008.57
2016-05-24T03:17:15.889Z,1008.57
2016-05-24T03:18:15.876Z,1008.62
2016-05-24T03:19:16.518Z,1008.53
2016-05-24T03:20:15.849Z,1008.52
2016-05-24T03:21:15.837Z,1008.53
2016-05-24T03:22:15.824Z,1008.56
2016-05-24T03:23:15.812Z,1008.53
2016-05-24T03:24:15.798Z,1008.59
2016-05-24T03:25:15.785Z,1008.59
2016-05-24T03:26:15.773Z,1008.58
2016-05-24T03:27:15.759Z,1008.59
2016-05-24T03:28:15.746Z,1008.61
2016-05-24T03:29:15.765Z,1008.56
2016-05-24T03:30:15.720Z,1008.56
2016-05-24T03:31:15.708Z,1008.57
2016-05-24T03:32:15.695Z,1008.6
2016-05-24T03:33:15.681Z,1008.65
2016-05-24T03:34:15.669Z,1008.61
2016-05-24T03:35:15.797Z,1008.71
2016-05-24T03:36:15.642Z,1008.71
2016-05-24T03:37:15.631Z,1008.65
2016-05-24T03:38:15.617Z,1008.69
2016-05-24T03:39:15.605Z,1008.77
2016-05-24T03:40:15.591Z,1008.72
2016-05-24T03:41:15.578Z,1008.72
2016-05-24T03:42:15.565Z,1008.72
2016-05-24T03:43:15.803Z,1008.73
2016-05-24T03:44:15.539Z,1008.71
2016-05-24T03:45:15.527Z,1008.77
2016-05-24T03:46:15.513Z,1008.72
2016-05-24T03:47:15.501Z,1008.74
2016-05-24T03:48:15.487Z,1008.79
2016-05-24T03:49:15.475Z,1008.81
2016-05-24T03:50:15.462Z,1008.81
2016-05-24T03:51:15.793Z,1008.83
2016-05-24T03:52:15.435Z,1008.86
2016-05-24T03:53:15.424Z,1008.86
2016-05-24T03:54:15.410Z,1008.88
2016-05-24T03:55:15.398Z,1008.9
2016-05-24T03:56:15.384Z,1008.86
2016-05-24T03:57:15.371Z,1008.9
2016-05-24T03:58:15.359Z,1008.87
2016-05-24T03:59:15.798Z,1008.88
2016-05-24T04:00:15.848Z,1008.93
2016-05-24T04:01:15.320Z,1008.97
2016-05-24T04:02:15.306Z,1008.97
2016-05-24T04:03:15.294Z,1008.96
2016-05-24T04:04:15.281Z,1009.03
2016-05-24T04:05:15.268Z,1008.98
2016-05-24T04:06:15.255Z,1008.98
2016-05-24T04:07:15.242Z,1009.01
2016-05-24T04:08:15.228Z,1009.05
2016-05-24T04:09:15.216Z,1009.02
2016-05-24T04:10:15.203Z,1009.06
2016-05-24T04:11:15.191Z,1008.99
2016-05-24T04:12:15.177Z,1008.97
2016-05-24T04:13:15.164Z,1008.98
2016-05-24T04:14:15.151Z,1009
2016-05-24T04:15:15.138Z,1008.94
2016-05-24T04:16:15.126Z,1009.01
2016-05-24T04:17:15.113Z,1009
2016-05-24T04:18:15.100Z,1008.99
2016-05-24T04:19:15.087Z,1008.98
2016-05-24T04:20:15.073Z,1009.01
2016-05-24T04:21:15.061Z,1009
2016-05-24T04:22:15.048Z,1009.01
2016-05-24T04:23:15.035Z,1009.03
2016-05-24T04:24:15.022Z,1009.01
2016-05-24T04:25:15.009Z,1009.07
2016-05-24T04:26:14.996Z,1009.05
2016-05-24T04:27:14.983Z,1009.06
2016-05-24T04:28:14.971Z,1009.07
2016-05-24T04:29:14.957Z,1009.06
2016-05-24T04:30:15.085Z,1009.1
2016-05-24T04:31:14.931Z,1009.08
2016-05-24T04:32:14.918Z,1009.11
2016-05-24T04:33:14.906Z,1009.12
2016-05-24T04:34:14.893Z,1009.08
2016-05-24T04:35:14.880Z,1009.12
2016-05-24T04:36:14.867Z,1009.14
2016-05-24T04:37:14.853Z,1009.16
2016-05-24T04:38:14.841Z,1009.15
2016-05-24T04:39:14.828Z,1009.15
2016-05-24T04:40:14.815Z,1009.08
2016-05-24T04:41:14.802Z,1009.14
2016-05-24T04:42:14.789Z,1009.13
2016-05-24T04:43:14.776Z,1009.12
2016-05-24T04:44:14.764Z,1009.1
2016-05-24T04:45:15.344Z,1009.07
2016-05-24T04:46:14.738Z,1009.09
2016-05-24T04:47:14.724Z,1009.1
2016-05-24T04:48:14.711Z,1009.06
2016-05-24T04:49:14.698Z,1009.08
2016-05-24T04:50:14.686Z,1009.07
2016-05-24T04:51:14.674Z,1009.07
2016-05-24T04:52:14.660Z,1009.06
2016-05-24T04:53:14.646Z,1009.04
2016-05-24T04:54:14.634Z,1009.03
2016-05-24T04:55:14.621Z,1008.98
2016-05-24T04:56:14.608Z,1009.02
2016-05-24T04:57:14.596Z,1009.03
2016-05-24T04:58:14.582Z,1008.98
2016-05-24T04:59:14.569Z,1009.02
2016-05-24T05:00:14.651Z,1009.03
2016-05-24T05:01:14.541Z,1009.04
2016-05-24T05:02:14.528Z,1009.02
2016-05-24T05:03:14.515Z,1008.99
2016-05-24T05:04:14.502Z,1008.98
2016-05-24T05:05:14.489Z,1008.99
2016-05-24T05:06:14.476Z,1008.99
2016-05-24T05:07:14.463Z,1009
2016-05-24T05:08:14.450Z,1009.01
2016-05-24T05:09:14.437Z,1009.08
2016-05-24T05:10:14.440Z,1009.08
2016-05-24T05:11:14.411Z,1009.05
2016-05-24T05:12:14.398Z,1009.11
2016-05-24T05:13:14.386Z,1009.08
2016-05-24T05:14:14.373Z,1009.11
2016-05-24T05:15:14.860Z,1009.1
2016-05-24T05:16:14.347Z,1009.13
2016-05-24T05:17:14.333Z,1009.13
2016-05-24T05:18:14.321Z,1009.09
2016-05-24T05:19:14.308Z,1009.1
2016-05-24T05:20:14.295Z,1009.15
2016-05-24T05:21:14.282Z,1009.15
2016-05-24T05:22:14.269Z,1009.16
2016-05-24T05:23:14.257Z,1009.15
2016-05-24T05:24:14.244Z,1009.18
2016-05-24T05:25:14.229Z,1009.11
2016-05-24T05:26:14.218Z,1009.15
2016-05-24T05:27:14.205Z,1009.14
2016-05-24T05:28:14.191Z,1009.12
2016-05-24T05:29:14.178Z,1009.13
2016-05-24T05:30:14.431Z,1009.18
2016-05-24T05:31:14.153Z,1009.13
2016-05-24T05:32:14.140Z,1009.14
2016-05-24T05:33:14.126Z,1009.14
2016-05-24T05:34:14.115Z,1009.2
2016-05-24T05:35:14.101Z,1009.16
2016-05-24T05:36:14.087Z,1009.18
2016-05-24T05:37:14.076Z,1009.23
2016-05-24T05:38:14.062Z,1009.26
2016-05-24T05:39:14.049Z,1009.22
2016-05-24T05:40:14.036Z,1009.24
2016-05-24T05:41:14.023Z,1009.3
2016-05-24T05:42:14.011Z,1009.27
2016-05-24T05:43:13.997Z,1009.27
2016-05-24T05:44:13.984Z,1009.27
2016-05-24T05:45:13.972Z,1009.28
2016-05-24T05:46:13.958Z,1009.26
2016-05-24T05:47:13.946Z,1009.27
2016-05-24T05:48:13.932Z,1009.32
2016-05-24T05:49:13.919Z,1009.3
2016-05-24T05:50:13.908Z,1009.32
2016-05-24T05:51:13.910Z,1009.35
2016-05-24T05:52:13.881Z,1009.34
2016-05-24T05:53:13.868Z,1009.4
2016-05-24T05:54:13.855Z,1009.34
2016-05-24T05:55:13.842Z,1009.34
2016-05-24T05:56:13.829Z,1009.35
2016-05-24T05:57:13.816Z,1009.33
2016-05-24T05:58:13.804Z,1009.33
2016-05-24T05:59:13.790Z,1009.3
2016-05-24T06:00:13.949Z,1009.33
2016-05-24T06:01:13.765Z,1009.32
2016-05-24T06:02:13.751Z,1009.33
2016-05-24T06:03:13.739Z,1009.27
2016-05-24T06:04:13.725Z,1009.3
2016-05-24T06:05:13.713Z,1009.36
2016-05-24T06:06:13.684Z,1009.37
2016-05-24T06:07:13.687Z,1009.43
2016-05-24T06:08:13.673Z,1009.41
2016-05-24T06:09:13.661Z,1009.38
2016-05-24T06:10:13.647Z,1009.38
2016-05-24T06:11:13.635Z,1009.4
2016-05-24T06:12:13.826Z,1009.46
2016-05-24T06:13:13.609Z,1009.4
2016-05-24T06:14:13.580Z,1009.42
2016-05-24T06:15:13.818Z,1009.37
2016-05-24T06:16:13.586Z,1009.41
2016-05-24T06:17:13.541Z,1009.41
2016-05-24T06:18:13.529Z,1009.38
2016-05-24T06:19:13.516Z,1009.38
2016-05-24T06:20:13.519Z,1009.45
2016-05-24T06:21:13.491Z,1009.41
2016-05-24T06:22:13.477Z,1009.41
2016-05-24T06:23:13.464Z,1009.42
2016-05-24T06:24:13.451Z,1009.4
2016-05-24T06:25:13.438Z,1009.46
2016-05-24T06:26:13.426Z,1009.41
2016-05-24T06:27:13.413Z,1009.46
2016-05-24T06:28:13.399Z,1009.45
2016-05-24T06:29:13.387Z,1009.45
2016-05-24T06:30:13.390Z,1009.43
2016-05-24T06:31:13.360Z,1009.45
2016-05-24T06:32:13.348Z,1009.38
2016-05-24T06:33:13.335Z,1009.39
2016-05-24T06:34:13.323Z,1009.43
2016-05-24T06:35:13.309Z,1009.41
2016-05-24T06:36:13.296Z,1009.48
2016-05-24T06:37:13.284Z,1009.43
2016-05-24T06:38:13.270Z,1009.42
2016-05-24T06:39:13.257Z,1009.51
2016-05-24T06:40:13.245Z,1009.46
2016-05-24T06:41:13.232Z,1009.51
2016-05-24T06:42:13.219Z,1009.47
2016-05-24T06:43:13.205Z,1009.5
2016-05-24T06:44:13.192Z,1009.49
2016-05-24T06:45:13.180Z,1009.53
2016-05-24T06:46:13.167Z,1009.54
2016-05-24T06:47:13.154Z,1009.56
2016-05-24T06:48:13.141Z,1009.6
2016-05-24T06:49:13.128Z,1009.59
2016-05-24T06:50:13.116Z,1009.62
2016-05-24T06:51:13.103Z,1009.6
2016-05-24T06:52:13.089Z,1009.63
2016-05-24T06:53:13.077Z,1009.66
2016-05-24T06:54:13.063Z,1009.7
2016-05-24T06:55:13.050Z,1009.7
2016-05-24T06:56:13.038Z,1009.7
2016-05-24T06:57:13.024Z,1009.71
2016-05-24T06:58:13.058Z,1009.73
2016-05-24T06:59:12.999Z,1009.76
2016-05-24T07:00:12.986Z,1009.8
2016-05-24T07:01:12.974Z,1009.83
2016-05-24T07:02:12.960Z,1009.78
2016-05-24T07:03:12.947Z,1009.78
2016-05-24T07:04:12.934Z,1009.82
2016-05-24T07:05:12.921Z,1009.82
2016-05-24T07:06:12.909Z,1009.81
2016-05-24T07:07:12.895Z,1009.78
2016-05-24T07:08:12.882Z,1009.72
2016-05-24T07:09:12.870Z,1009.77
2016-05-24T07:10:12.857Z,1009.77
2016-05-24T07:11:12.843Z,1009.76
2016-05-24T07:12:12.831Z,1009.73
2016-05-24T07:13:12.818Z,1009.76
2016-05-24T07:14:12.790Z,1009.76
2016-05-24T07:15:12.792Z,1009.79
2016-05-24T07:16:12.778Z,1009.72
2016-05-24T07:17:12.766Z,1009.77
2016-05-24T07:18:12.753Z,1009.78
2016-05-24T07:19:12.739Z,1009.73
2016-05-24T07:20:12.727Z,1009.73
2016-05-24T07:21:12.699Z,1009.69
2016-05-24T07:22:12.686Z,1009.7
2016-05-24T07:23:12.672Z,1009.69
2016-05-24T07:24:12.675Z,1009.67
2016-05-24T07:25:12.647Z,1009.68
2016-05-24T07:26:12.791Z,1009.68
2016-05-24T07:27:12.621Z,1009.7
2016-05-24T07:28:12.608Z,1009.67
2016-05-24T07:29:12.596Z,1009.64
2016-05-24T07:30:13.035Z,1009.62
2016-05-24T07:31:12.569Z,1009.67
2016-05-24T07:32:12.571Z,1009.65
2016-05-24T07:33:12.559Z,1009.66
2016-05-24T07:34:12.780Z,1009.69
2016-05-24T07:35:12.518Z,1009.64
2016-05-24T07:36:12.520Z,1009.65
2016-05-24T07:37:12.492Z,1009.61
2016-05-24T07:38:12.479Z,1009.65
2016-05-24T07:39:12.466Z,1009.67
2016-05-24T07:40:12.453Z,1009.63
2016-05-24T07:41:12.440Z,1009.63
2016-05-24T07:42:12.786Z,1009.64
2016-05-24T07:43:12.508Z,1009.64
2016-05-24T07:44:12.401Z,1009.57
2016-05-24T07:45:12.388Z,1009.67
2016-05-24T07:46:12.376Z,1009.66
2016-05-24T07:47:12.362Z,1009.73
2016-05-24T07:48:12.349Z,1009.77
2016-05-24T07:49:12.337Z,1009.76
2016-05-24T07:50:12.823Z,1009.72
2016-05-24T07:51:12.311Z,1009.65
2016-05-24T07:52:12.298Z,1009.68
2016-05-24T07:53:12.285Z,1009.69
2016-05-24T07:54:12.272Z,1009.67
2016-05-24T07:55:12.258Z,1009.67
2016-05-24T07:56:12.230Z,1009.71
2016-05-24T07:57:12.217Z,1009.72
2016-05-24T07:58:12.908Z,1009.71
2016-05-24T07:59:12.191Z,1009.72
2016-05-24T08:00:12.179Z,1009.71
2016-05-24T08:01:12.181Z,1009.7
2016-05-24T08:02:12.152Z,1009.73
2016-05-24T08:03:12.140Z,1009.77
2016-05-24T08:04:12.127Z,1009.76
2016-05-24T08:05:12.114Z,1009.76
2016-05-24T08:06:12.960Z,1009.77
2016-05-24T08:07:12.088Z,1009.77
2016-05-24T08:08:12.075Z,1009.76
2016-05-24T08:09:12.078Z,1009.77
2016-05-24T08:10:12.049Z,1009.74
2016-05-24T08:11:12.037Z,1009.74
2016-05-24T08:12:12.039Z,1009.78
2016-05-24T08:13:12.010Z,1009.78
2016-05-24T08:14:12.154Z,1009.75
2016-05-24T08:15:11.984Z,1009.77
2016-05-24T08:16:12.065Z,1009.82
2016-05-24T08:17:11.975Z,1009.79
2016-05-24T08:18:11.946Z,1009.78
2016-05-24T08:19:11.933Z,1009.78
2016-05-24T08:20:11.919Z,1009.76
2016-05-24T08:21:11.969Z,1009.78
2016-05-24T08:22:13.129Z,1009.77
2016-05-24T08:23:11.881Z,1009.8
2016-05-24T08:24:11.853Z,1009.77
2016-05-24T08:25:11.856Z,1009.87
2016-05-24T08:26:11.842Z,1009.79
2016-05-24T08:27:11.829Z,1009.85
2016-05-24T08:28:11.816Z,1009.81
2016-05-24T08:29:11.803Z,1009.85
2016-05-24T08:30:13.119Z,1009.83
2016-05-24T08:31:11.777Z,1009.84
2016-05-24T08:32:11.765Z,1009.83
2016-05-24T08:33:11.752Z,1009.81
2016-05-24T08:34:11.723Z,1009.83
2016-05-24T08:35:11.710Z,1009.8
2016-05-24T08:36:11.713Z,1009.8
2016-05-24T08:37:11.700Z,1009.85
2016-05-24T08:38:12.077Z,1009.81
2016-05-24T08:39:11.674Z,1009.86
2016-05-24T08:40:11.661Z,1009.89
2016-05-24T08:41:11.632Z,1009.87
2016-05-24T08:42:11.620Z,1009.95
2016-05-24T08:43:11.607Z,1009.87
2016-05-24T08:44:11.594Z,1009.9
2016-05-24T08:45:11.768Z,1009.89
2016-05-24T08:46:11.568Z,1009.87
2016-05-24T08:47:11.570Z,1009.88
2016-05-24T08:48:11.558Z,1009.87
2016-05-24T08:49:11.544Z,1009.9
2016-05-24T08:50:11.531Z,1009.9
2016-05-24T08:51:11.551Z,1009.87
2016-05-24T08:52:11.506Z,1009.88
2016-05-24T08:53:11.492Z,1009.9
2016-05-24T08:54:11.464Z,1009.9
2016-05-24T08:55:11.545Z,1009.85
2016-05-24T08:56:11.454Z,1009.88
2016-05-24T08:57:11.442Z,1009.83
2016-05-24T08:58:11.413Z,1009.81
2016-05-24T08:59:11.400Z,1009.82
2016-05-24T09:00:11.418Z,1009.78
2016-05-24T09:01:11.858Z,1009.76
2016-05-24T09:02:11.361Z,1009.81
2016-05-24T09:03:11.348Z,1009.73
2016-05-24T09:04:11.336Z,1009.76
2016-05-24T09:05:11.322Z,1009.72
2016-05-24T09:06:11.309Z,1009.78
2016-05-24T09:07:11.296Z,1009.8
2016-05-24T09:08:11.283Z,1009.77
2016-05-24T09:09:11.271Z,1009.75
2016-05-24T09:10:11.257Z,1009.75
2016-05-24T09:11:11.245Z,1009.71
2016-05-24T09:12:11.232Z,1009.78
2016-05-24T09:13:11.219Z,1009.69
2016-05-24T09:14:11.206Z,1009.72
2016-05-24T09:15:12.381Z,1009.75
2016-05-24T09:16:11.368Z,1009.74
2016-05-24T09:17:11.167Z,1009.75
2016-05-24T09:18:11.154Z,1009.74
2016-05-24T09:19:11.141Z,1009.82
2016-05-24T09:20:12.534Z,1009.79
2016-05-24T09:21:11.115Z,1009.79
2016-05-24T09:22:11.103Z,1009.8
2016-05-24T09:23:11.089Z,1009.73
2016-05-24T09:24:11.076Z,1009.71
2016-05-24T09:25:12.611Z,1009.72
2016-05-24T09:26:11.036Z,1009.69
2016-05-24T09:27:11.022Z,1009.72
2016-05-24T09:28:11.024Z,1009.74
2016-05-24T09:29:10.997Z,1009.74
2016-05-24T09:30:13.171Z,1009.8
2016-05-24T09:31:11.002Z,1009.83
2016-05-24T09:32:10.973Z,1009.82
2016-05-24T09:33:10.960Z,1009.86
2016-05-24T09:34:10.932Z,1009.85
2016-05-24T09:35:10.935Z,1009.88
2016-05-24T09:36:10.921Z,1009.85
2016-05-24T09:37:10.892Z,1009.88
2016-05-24T09:38:10.880Z,1009.88
2016-05-24T09:39:10.882Z,1009.89
2016-05-24T09:40:10.869Z,1009.93
2016-05-24T09:41:10.841Z,1009.88
2016-05-24T09:42:10.843Z,1009.92
2016-05-24T09:43:10.893Z,1010.01
2016-05-24T09:44:10.818Z,1009.96
2016-05-24T09:45:11.461Z,1009.95
2016-05-24T09:46:11.245Z,1009.98
2016-05-24T09:47:10.778Z,1009.95
2016-05-24T09:48:10.766Z,1009.97
2016-05-24T09:49:10.754Z,1009.99
2016-05-24T09:50:11.395Z,1010.01
2016-05-24T09:51:10.712Z,1009.94
2016-05-24T09:52:10.730Z,1009.97
2016-05-24T09:53:10.717Z,1009.96
2016-05-24T09:54:10.673Z,1009.93
2016-05-24T09:55:10.659Z,1009.98
2016-05-24T09:56:10.662Z,1009.9
2016-05-24T09:57:10.634Z,1009.95
2016-05-24T09:58:10.636Z,1009.89
2016-05-24T09:59:10.624Z,1009.94
2016-05-24T10:00:10.611Z,1009.93
2016-05-24T10:01:10.583Z,1009.95
2016-05-24T10:02:10.569Z,1009.95
2016-05-24T10:03:10.556Z,1009.94
2016-05-24T10:04:10.544Z,1009.97
2016-05-24T10:05:10.546Z,1009.9
2016-05-24T10:06:10.532Z,1009.91
2016-05-24T10:07:10.549Z,1009.91
2016-05-24T10:08:10.527Z,1009.93
2016-05-24T10:09:10.551Z,1009.97
2016-05-24T10:10:10.561Z,1010.02
2016-05-24T10:11:10.570Z,1009.95
2016-05-24T10:12:10.569Z,1010
2016-05-24T10:13:10.549Z,1009.99
2016-05-24T10:14:10.685Z,1009.98
2016-05-24T10:15:10.976Z,1010.03
2016-05-24T10:16:10.535Z,1010.03
2016-05-24T10:17:10.527Z,1010.01
2016-05-24T10:18:10.533Z,1010.04
2016-05-24T10:19:10.522Z,1009.99
2016-05-24T10:20:10.527Z,1009.96
2016-05-24T10:21:10.502Z,1010
2016-05-24T10:22:10.490Z,1010.04
2016-05-24T10:23:10.463Z,1009.99
2016-05-24T10:24:10.451Z,1009.95
2016-05-24T10:25:10.454Z,1009.95
2016-05-24T10:26:10.443Z,1009.96
2016-05-24T10:27:10.415Z,1009.88
2016-05-24T10:28:10.418Z,1009.9
2016-05-24T10:29:10.390Z,1009.92
2016-05-24T10:30:10.378Z,1009.96
2016-05-24T10:31:10.365Z,1009.91
2016-05-24T10:32:10.352Z,1009.95
2016-05-24T10:33:10.340Z,1009.94
2016-05-24T10:34:10.326Z,1009.96
2016-05-24T10:35:10.313Z,1009.93
2016-05-24T10:36:10.300Z,1009.89
2016-05-24T10:37:10.303Z,1009.94
2016-05-24T10:38:10.353Z,1009.92
2016-05-24T10:39:10.262Z,1009.93
2016-05-24T10:40:10.248Z,1009.94
2016-05-24T10:41:10.236Z,1009.92
2016-05-24T10:42:10.223Z,1009.9
2016-05-24T10:43:10.209Z,1009.92
2016-05-24T10:44:10.197Z,1009.91
2016-05-24T10:45:10.262Z,1009.92
2016-05-24T10:46:10.171Z,1009.9
2016-05-24T10:47:10.158Z,1009.92
2016-05-24T10:48:10.145Z,1009.94
2016-05-24T10:49:10.133Z,1009.93
2016-05-24T10:50:10.135Z,1009.94
2016-05-24T10:51:10.106Z,1009.91
2016-05-24T10:52:10.109Z,1009.92
2016-05-24T10:53:10.080Z,1009.92
2016-05-24T10:54:10.068Z,1009.94
2016-05-24T10:55:10.070Z,1009.92
2016-05-24T10:56:10.041Z,1009.86
2016-05-24T10:57:10.029Z,1009.88
2016-05-24T10:58:10.016Z,1009.9
2016-05-24T10:59:10.002Z,1009.84
2016-05-24T11:00:10.427Z,1009.84
2016-05-24T11:01:09.992Z,1009.81
2016-05-24T11:02:09.965Z,1009.79
2016-05-24T11:03:09.951Z,1009.78
2016-05-24T11:04:09.938Z,1009.79
2016-05-24T11:05:09.926Z,1009.77
2016-05-24T11:06:09.912Z,1009.76
2016-05-24T11:07:09.899Z,1009.76
2016-05-24T11:08:09.902Z,1009.73
2016-05-24T11:09:09.873Z,1009.79
2016-05-24T11:10:09.861Z,1009.74
2016-05-24T11:11:09.864Z,1009.74
2016-05-24T11:12:09.834Z,1009.77
2016-05-24T11:13:09.837Z,1009.76
2016-05-24T11:14:09.808Z,1009.73
2016-05-24T11:15:09.796Z,1009.81
2016-05-24T11:16:09.783Z,1009.77
2016-05-24T11:17:09.769Z,1009.8
2016-05-24T11:18:09.773Z,1009.87
2016-05-24T11:19:09.760Z,1009.83
2016-05-24T11:20:09.731Z,1009.85
2016-05-24T11:21:09.719Z,1009.84
2016-05-24T11:22:09.721Z,1009.8
2016-05-24T11:23:09.692Z,1009.88
2016-05-24T11:24:09.695Z,1009.87
2016-05-24T11:25:09.666Z,1009.83
2016-05-24T11:26:09.669Z,1009.81
2016-05-24T11:27:09.641Z,1009.88
2016-05-24T11:28:09.643Z,1009.83
2016-05-24T11:29:09.693Z,1009.82
2016-05-24T11:30:09.852Z,1009.75
2016-05-24T11:31:09.605Z,1009.73
2016-05-24T11:32:09.576Z,1009.76
2016-05-24T11:33:09.563Z,1009.72
2016-05-24T11:34:09.566Z,1009.73
2016-05-24T11:35:09.554Z,1009.73
2016-05-24T11:36:09.524Z,1009.71
2016-05-24T11:37:09.511Z,1009.71
2016-05-24T11:38:09.498Z,1009.71
2016-05-24T11:39:09.501Z,1009.68
2016-05-24T11:40:09.473Z,1009.67
2016-05-24T11:41:09.459Z,1009.68
2016-05-24T11:42:09.447Z,1009.69
2016-05-24T11:43:09.450Z,1009.71
2016-05-24T11:44:09.420Z,1009.65
2016-05-24T11:45:09.783Z,1009.67
2016-05-24T11:46:09.410Z,1009.61
2016-05-24T11:47:09.413Z,1009.64
2016-05-24T11:48:09.384Z,1009.62
2016-05-24T11:49:09.372Z,1009.67
2016-05-24T11:50:09.344Z,1009.69
2016-05-24T11:51:09.331Z,1009.66
2016-05-24T11:52:09.316Z,1009.74
2016-05-24T11:53:09.320Z,1009.68
2016-05-24T11:54:09.308Z,1009.66
2016-05-24T11:55:09.294Z,1009.71
2016-05-24T11:56:09.281Z,1009.68
2016-05-24T11:57:09.268Z,1009.7
2016-05-24T11:58:09.255Z,1009.71
2016-05-24T11:59:09.243Z,1009.72
2016-05-24T12:00:09.229Z,1009.7
2016-05-24T12:01:09.451Z,1009.77
2016-05-24T12:02:09.188Z,1009.75
2016-05-24T12:03:09.190Z,1009.73
2016-05-24T12:04:09.177Z,1009.75
2016-05-24T12:05:09.212Z,1009.72
2016-05-24T12:06:09.152Z,1009.74
2016-05-24T12:07:09.139Z,1009.7
2016-05-24T12:08:09.126Z,1009.69